createdAt,value
2017-09-22T00:00:03.418Z,0
2017-09-22T00:05:02.880Z,0
2017-09-22T00:10:02.467Z,0
2017-09-22T00:15:02.980Z,0
2017-09-22T00:20:02.606Z,0
2017-09-22T00:25:03.118Z,0
2017-09-22T00:30:02.512Z,0
2017-09-22T00:35:02.996Z,0
2017-09-22T00:40:02.503Z,0
2017-09-22T00:45:03.056Z,0
2017-09-22T00:50:02.505Z,0
2017-09-22T00:55:02.935Z,0
2017-09-22T01:00:02.444Z,0
2017-09-22T01:05:02.876Z,0
2017-09-22T01:10:02.492Z,0
2017-09-22T01:15:03.120Z,0
2017-09-22T01:20:02.690Z,0
2017-09-22T01:25:03.090Z,0
2017-09-22T01:30:02.488Z,0
2017-09-22T01:35:02.986Z,0
2017-09-22T01:40:02.579Z,0
2017-09-22T01:45:02.974Z,0
2017-09-22T01:50:02.507Z,0
2017-09-22T01:55:02.996Z,0
2017-09-22T02:00:03.479Z,0
2017-09-22T02:05:02.995Z,0
2017-09-22T02:10:02.607Z,0
2017-09-22T02:15:03.171Z,0
2017-09-22T02:20:02.690Z,0
2017-09-22T02:25:03.243Z,0
2017-09-22T02:30:02.693Z,0
2017-09-22T02:35:03.209Z,0
2017-09-22T02:40:02.809Z,0
2017-09-22T02:45:02.521Z,0
2017-09-22T02:50:03.106Z,0
2017-09-22T02:55:02.653Z,0
2017-09-22T03:00:03.105Z,0
2017-09-22T03:05:02.534Z,0
2017-09-22T03:10:03.132Z,0
2017-09-22T03:15:02.554Z,0
2017-09-22T03:20:03.012Z,0
2017-09-22T03:25:02.456Z,0
2017-09-22T03:30:02.845Z,0
2017-09-22T03:35:03.300Z,0
2017-09-22T03:40:02.790Z,0
2017-09-22T03:45:03.327Z,0
2017-09-22T03:50:02.904Z,0
2017-09-22T03:55:02.428Z,0
2017-09-22T04:00:02.937Z,0
2017-09-22T04:05:02.508Z,0
2017-09-22T04:10:03.105Z,0
2017-09-22T04:15:02.501Z,0
2017-09-22T04:20:03.040Z,0
2017-09-22T04:25:02.591Z,0
2017-09-22T04:30:03.293Z,0
2017-09-22T04:35:02.700Z,0
2017-09-22T04:40:03.225Z,0
2017-09-22T04:45:02.853Z,0
2017-09-22T04:50:03.318Z,1
2017-09-22T04:55:02.984Z,3
2017-09-22T05:00:03.393Z,9
2017-09-22T05:05:02.852Z,29
2017-09-22T05:10:02.462Z,39
2017-09-22T05:15:02.978Z,57
2017-09-22T05:20:02.564Z,89
2017-09-22T05:25:02.972Z,159
2017-09-22T05:30:03.447Z,285
2017-09-22T05:35:02.982Z,400
2017-09-22T05:40:02.548Z,468
2017-09-22T05:45:02.987Z,560
2017-09-22T05:50:02.536Z,666
2017-09-22T05:55:03.069Z,739
2017-09-22T06:00:02.659Z,834
2017-09-22T06:05:03.135Z,966
2017-09-22T06:10:02.679Z,1000
2017-09-22T06:15:03.145Z,1000
2017-09-22T06:20:02.574Z,1000
2017-09-22T06:25:02.969Z,1000
2017-09-22T06:30:02.482Z,1000
2017-09-22T06:35:03.112Z,1000
2017-09-22T06:40:02.713Z,2000
2017-09-22T06:45:03.134Z,2000
2017-09-22T06:50:02.536Z,3000
2017-09-22T06:55:02.939Z,3000
2017-09-22T07:00:03.330Z,2000
2017-09-22T07:05:02.698Z,2000
2017-09-22T07:10:03.232Z,2000
2017-09-22T07:15:02.791Z,2000
2017-09-22T07:20:03.317Z,3000
2017-09-22T07:25:02.712Z,4000
2017-09-22T07:30:03.257Z,5000
2017-09-22T07:35:02.837Z,4000
2017-09-22T07:40:03.332Z,5000
2017-09-22T07:45:02.796Z,5000
2017-09-22T07:50:03.328Z,6000
2017-09-22T07:55:02.849Z,9000
2017-09-22T08:00:03.308Z,24000
2017-09-22T08:05:02.792Z,20000
2017-09-22T08:10:03.361Z,22000
2017-09-22T08:15:02.731Z,22000
2017-09-22T08:20:03.123Z,25000
2017-09-22T08:25:02.669Z,17000
2017-09-22T08:30:03.146Z,25000
2017-09-22T08:35:02.594Z,23000
2017-09-22T08:40:03.151Z,12000
2017-09-22T08:45:02.668Z,13000
2017-09-22T08:50:03.273Z,10000
2017-09-22T08:55:02.688Z,9000
2017-09-22T09:05:02.942Z,9000
2017-09-22T09:10:02.449Z,10000
2017-09-22T09:15:02.878Z,10000
2017-09-22T09:20:03.331Z,10000
2017-09-22T09:25:02.725Z,11000
2017-09-22T09:30:03.260Z,11000
2017-09-22T09:35:02.812Z,9000
2017-09-22T09:40:03.319Z,9000
2017-09-22T09:45:02.763Z,8000
2017-09-22T09:50:03.168Z,8000
2017-09-22T09:55:02.589Z,8000
2017-09-22T10:00:02.993Z,8000
2017-09-22T10:05:02.554Z,8000
2017-09-22T10:10:03.193Z,9000
2017-09-22T10:15:02.719Z,9000
2017-09-22T10:20:03.281Z,9000
2017-09-22T10:25:02.847Z,9000
2017-09-22T10:30:03.293Z,9000
2017-09-22T10:35:02.800Z,9000
2017-09-22T10:40:03.297Z,11000
2017-09-22T10:45:02.688Z,10000
2017-09-22T10:50:03.277Z,9000
2017-09-22T10:55:02.697Z,13000
2017-09-22T11:00:03.116Z,15000
2017-09-22T11:05:02.611Z,21000
2017-09-22T11:10:03.164Z,33000
2017-09-22T11:15:02.750Z,34000
2017-09-22T11:20:03.288Z,33000
2017-09-22T11:25:02.761Z,19000
2017-09-22T11:30:03.226Z,33000
2017-09-22T11:35:02.812Z,41000
2017-09-22T11:40:03.296Z,18000
2017-09-22T11:45:02.743Z,16000
2017-09-22T11:50:03.148Z,18000
2017-09-22T11:55:02.549Z,16000
2017-09-22T12:00:02.986Z,14000
2017-09-22T12:05:02.565Z,25000
2017-09-22T12:10:03.274Z,15000
2017-09-22T12:15:02.713Z,15000
2017-09-22T12:20:03.155Z,16000
2017-09-22T12:25:02.537Z,20000
2017-09-22T12:30:02.992Z,17000
2017-09-22T12:35:02.542Z,39000
2017-09-22T12:40:03.132Z,40000
2017-09-22T12:45:02.734Z,45000
2017-09-22T12:50:03.198Z,25000
2017-09-22T12:55:02.727Z,21000
2017-09-22T13:00:03.174Z,13000
2017-09-22T13:05:02.634Z,8000
2017-09-22T13:10:03.149Z,10000
2017-09-22T13:15:02.607Z,11000
2017-09-22T13:20:03.058Z,32000
2017-09-22T13:25:02.499Z,14000
2017-09-22T13:30:03.064Z,9000
2017-09-22T13:35:02.693Z,10000
2017-09-22T13:40:03.189Z,8000
2017-09-22T13:45:02.700Z,11000
2017-09-22T13:50:03.156Z,9000
2017-09-22T13:55:02.698Z,8000
2017-09-22T14:00:03.285Z,8000
2017-09-22T14:05:02.734Z,12000
2017-09-22T14:10:03.356Z,9000
2017-09-22T14:15:02.881Z,11000
2017-09-22T14:20:03.407Z,9000
2017-09-22T14:25:02.892Z,9000
2017-09-22T14:30:03.414Z,4000
2017-09-22T14:35:02.921Z,5000
2017-09-22T14:40:03.425Z,5000
2017-09-22T14:45:03.030Z,5000
2017-09-22T14:50:02.490Z,6000
2017-09-22T14:55:02.984Z,5000
2017-09-22T15:00:02.597Z,4000
2017-09-22T15:05:03.142Z,4000
2017-09-22T15:10:02.743Z,4000
2017-09-22T15:20:03.081Z,8000
2017-09-22T15:25:02.506Z,7000
2017-09-22T15:30:03.061Z,4000
2017-09-22T15:35:02.545Z,3000
2017-09-22T15:40:03.117Z,2000
2017-09-22T15:45:02.600Z,2000
2017-09-22T15:50:03.156Z,2000
2017-09-22T15:55:02.710Z,2000
2017-09-22T16:00:03.233Z,3000
2017-09-22T16:05:02.783Z,2000
2017-09-22T16:15:02.737Z,1000
2017-09-22T16:20:03.232Z,1000
2017-09-22T16:25:02.673Z,1000
2017-09-22T16:30:03.435Z,1000
2017-09-22T16:35:02.828Z,983
2017-09-22T16:40:03.294Z,849
2017-09-22T16:45:02.685Z,728
2017-09-22T16:50:03.241Z,612
2017-09-22T16:55:02.754Z,555
2017-09-22T17:00:03.284Z,450
2017-09-22T17:05:02.720Z,352
2017-09-22T17:10:03.308Z,276
2017-09-22T17:15:02.762Z,252
2017-09-22T17:20:03.332Z,198
2017-09-22T17:25:02.763Z,81
2017-09-22T17:30:03.191Z,66
2017-09-22T17:35:02.628Z,56
2017-09-22T17:40:03.105Z,41
2017-09-22T17:45:02.508Z,25
2017-09-22T17:50:03.106Z,13
2017-09-22T17:55:02.557Z,5
2017-09-22T18:00:03.157Z,2
2017-09-22T18:05:02.610Z,0
2017-09-22T18:10:03.115Z,0
2017-09-22T18:15:02.705Z,0
2017-09-22T18:20:03.225Z,0
2017-09-22T18:25:02.736Z,0
2017-09-22T18:30:03.121Z,0
2017-09-22T18:35:02.641Z,0
2017-09-22T18:40:03.133Z,0
2017-09-22T18:45:02.695Z,0
2017-09-22T18:50:03.269Z,0
2017-09-22T18:55:02.695Z,0
2017-09-22T19:00:03.243Z,0
2017-09-22T19:05:02.873Z,0
2017-09-22T19:10:02.446Z,0
2017-09-22T19:15:02.884Z,0
2017-09-22T19:20:03.388Z,0
2017-09-22T19:25:02.897Z,0
2017-09-22T19:30:03.340Z,0
2017-09-22T19:35:02.872Z,0
2017-09-22T19:40:03.380Z,0
2017-09-22T19:45:02.749Z,0
2017-09-22T19:50:03.312Z,0
2017-09-22T19:55:02.879Z,0
2017-09-22T20:00:03.404Z,0
2017-09-22T20:05:02.935Z,0
2017-09-22T20:10:02.427Z,0
2017-09-22T20:15:02.846Z,0
2017-09-22T20:20:03.329Z,0
2017-09-22T20:25:02.821Z,0
2017-09-22T20:30:03.295Z,0
2017-09-22T20:35:02.802Z,0
2017-09-22T20:40:03.272Z,0
2017-09-22T20:45:02.768Z,0
2017-09-22T20:50:03.367Z,0
2017-09-22T20:55:02.868Z,0
2017-09-22T21:00:03.582Z,0
2017-09-22T21:05:03.143Z,0
2017-09-22T21:10:02.651Z,0
2017-09-22T21:15:03.191Z,0
2017-09-22T21:20:02.769Z,0
2017-09-22T21:25:03.321Z,0
2017-09-22T21:30:02.789Z,0
2017-09-22T21:35:03.288Z,0
2017-09-22T21:40:02.736Z,0
2017-09-22T21:45:03.186Z,0
2017-09-22T21:50:02.628Z,0
2017-09-22T21:55:03.069Z,0
2017-09-22T22:00:02.522Z,0
2017-09-22T22:05:02.965Z,0
2017-09-22T22:10:02.473Z,0
2017-09-22T22:15:03.076Z,0
2017-09-22T22:20:02.658Z,0
2017-09-22T22:25:03.277Z,0
2017-09-22T22:30:02.694Z,0
2017-09-22T22:35:03.210Z,0
2017-09-22T22:40:02.736Z,0
2017-09-22T22:45:03.281Z,0
2017-09-22T22:50:02.688Z,0
2017-09-22T22:55:03.315Z,0
2017-09-22T23:00:03.420Z,0
2017-09-22T23:05:02.931Z,0
2017-09-22T23:10:02.448Z,0
2017-09-22T23:15:02.917Z,0
2017-09-22T23:20:03.409Z,0
2017-09-22T23:25:02.862Z,0
2017-09-22T23:30:03.238Z,0
2017-09-22T23:35:02.751Z,0
2017-09-22T23:40:03.177Z,0
2017-09-22T23:45:02.623Z,0
2017-09-22T23:50:03.165Z,0
2017-09-22T23:55:02.529Z,0
